createdAt,value
2018-03-04T00:01:59.844Z,37.50
2018-03-04T00:04:27.555Z,36.70
2018-03-04T00:06:55.235Z,37.23
2018-03-04T00:09:22.940Z,38.20
2018-03-04T00:11:50.655Z,37.83
2018-03-04T00:14:18.383Z,38.30
2018-03-04T00:16:46.819Z,38.10
2018-03-04T00:19:14.527Z,38.80
2018-03-04T00:21:42.967Z,39.20
2018-03-04T00:24:10.717Z,37.37
2018-03-04T00:26:38.385Z,37.03
2018-03-04T00:29:06.054Z,40.73
2018-03-04T00:31:33.768Z,38.70
2018-03-04T00:34:01.442Z,36.80
2018-03-04T00:36:29.160Z,37.07
2018-03-04T00:38:57.591Z,35.90
2018-03-04T00:41:25.298Z,36.90
2018-03-04T00:43:53.729Z,37.43
2018-03-04T00:46:21.459Z,36.20
2018-03-04T00:48:49.130Z,35.87
2018-03-04T00:51:16.838Z,35.87
2018-03-04T00:53:44.508Z,34.60
2018-03-04T00:56:12.986Z,40.03
2018-03-04T00:58:41.416Z,39.53
2018-03-04T01:01:09.123Z,39.03
2018-03-04T01:03:37.562Z,39.83
2018-03-04T01:06:05.291Z,41.30
2018-03-04T01:08:33.017Z,38.63
2018-03-04T01:11:00.787Z,41.40
2018-03-04T01:13:29.262Z,38.60
2018-03-04T01:15:57.746Z,40.00
2018-03-04T01:18:26.176Z,38.77
2018-03-04T01:20:53.922Z,39.20
2018-03-04T01:23:21.595Z,37.40
2018-03-04T01:25:49.298Z,40.03
2018-03-04T01:28:17.771Z,39.10
2018-03-04T01:30:45.483Z,38.90
2018-03-04T01:33:13.152Z,41.07
2018-03-04T01:35:40.859Z,39.03
2018-03-04T01:38:09.304Z,39.30
2018-03-04T01:40:37.010Z,39.97
2018-03-04T01:43:05.488Z,39.10
2018-03-04T01:45:33.963Z,42.60
2018-03-04T01:48:02.410Z,40.50
2018-03-04T01:50:32.629Z,44.03
2018-03-04T01:53:00.299Z,39.00
2018-03-04T01:55:28.011Z,43.60
2018-03-04T01:57:55.679Z,40.70
2018-03-04T02:00:23.424Z,41.23
2018-03-04T02:02:51.094Z,44.47
2018-03-04T02:05:18.803Z,39.00
2018-03-04T02:07:46.479Z,44.07
2018-03-04T02:10:14.950Z,40.80
2018-03-04T02:12:43.380Z,41.70
2018-03-04T02:15:11.087Z,42.87
2018-03-04T02:17:39.529Z,41.63
2018-03-04T02:20:07.234Z,41.73
2018-03-04T02:22:35.658Z,40.67
2018-03-04T02:25:03.380Z,43.53
2018-03-04T02:27:31.034Z,41.10
2018-03-04T02:29:59.553Z,42.80
2018-03-04T02:32:27.227Z,44.07
2018-03-04T02:34:54.932Z,43.73
2018-03-04T02:37:23.369Z,42.53
2018-03-04T02:39:51.079Z,41.10
2018-03-04T02:42:18.739Z,45.00
2018-03-04T02:44:46.444Z,43.97
2018-03-04T02:47:14.124Z,41.70
2018-03-04T02:49:42.562Z,43.00
2018-03-04T02:52:10.272Z,44.97
2018-03-04T02:54:38.708Z,42.07
2018-03-04T02:57:06.411Z,42.30
2018-03-04T02:59:34.841Z,45.47
2018-03-04T03:02:02.556Z,41.40
2018-03-04T03:04:30.983Z,41.23
2018-03-04T03:06:58.692Z,41.93
2018-03-04T03:09:27.154Z,42.90
2018-03-04T03:11:54.867Z,43.27
2018-03-04T03:14:22.533Z,45.27
2018-03-04T03:16:50.234Z,42.77
2018-03-04T03:19:17.898Z,42.60
2018-03-04T03:21:45.608Z,44.70
2018-03-04T03:24:13.276Z,44.33
2018-03-04T03:26:40.974Z,47.30
2018-03-04T03:29:08.644Z,43.40
2018-03-04T03:31:37.124Z,40.53
2018-03-04T03:34:05.554Z,47.67
2018-03-04T03:36:33.264Z,45.50
2018-03-04T03:39:01.694Z,43.60
2018-03-04T03:41:29.398Z,45.67
2018-03-04T03:43:57.823Z,44.03
2018-03-04T03:46:25.531Z,45.80
2018-03-04T03:48:53.251Z,43.17
2018-03-04T03:51:20.963Z,42.67
2018-03-04T03:53:49.394Z,43.27
2018-03-04T03:56:17.106Z,43.20
2018-03-04T03:58:45.535Z,41.50
2018-03-04T04:01:13.242Z,42.50
2018-03-04T04:03:41.703Z,42.47
2018-03-04T04:06:09.421Z,42.53
2018-03-04T04:08:37.083Z,44.17
2018-03-04T04:11:04.787Z,45.00
2018-03-04T04:13:32.452Z,42.70
2018-03-04T04:16:00.923Z,42.30
2018-03-04T04:18:28.584Z,43.70
2018-03-04T04:20:56.283Z,43.03
2018-03-04T04:23:23.951Z,43.20
2018-03-04T04:25:51.650Z,42.60
2018-03-04T04:28:19.316Z,41.30
2018-03-04T04:30:47.037Z,45.00
2018-03-04T04:33:14.699Z,43.60
2018-03-04T04:35:42.403Z,42.90
2018-03-04T04:38:10.068Z,41.60
2018-03-04T04:40:38.534Z,42.50
2018-03-04T04:43:06.198Z,40.97
2018-03-04T04:45:33.904Z,43.23
2018-03-04T04:48:01.563Z,44.10
2018-03-04T04:50:29.264Z,40.37
2018-03-04T04:52:56.933Z,42.70
2018-03-04T04:55:24.645Z,42.53
2018-03-04T04:57:52.302Z,40.60
2018-03-04T05:00:20.026Z,42.43
2018-03-04T05:02:48.461Z,44.07
2018-03-04T05:05:16.206Z,43.83
2018-03-04T05:07:43.869Z,43.00
2018-03-04T05:10:11.545Z,44.97
2018-03-04T05:12:39.259Z,45.97
2018-03-04T05:15:07.684Z,42.33
2018-03-04T05:17:35.383Z,42.33
2018-03-04T05:20:03.848Z,43.43
2018-03-04T05:22:31.556Z,44.67
2018-03-04T05:24:59.211Z,43.60
2018-03-04T05:27:26.918Z,41.40
2018-03-04T05:29:54.588Z,40.70
2018-03-04T05:32:22.294Z,44.20
2018-03-04T05:34:49.959Z,44.80
2018-03-04T05:37:17.671Z,43.27
2018-03-04T05:39:45.335Z,44.93
2018-03-04T05:42:13.043Z,43.63
2018-03-04T05:44:40.703Z,39.83
2018-03-04T05:47:08.403Z,41.03
2018-03-04T05:49:36.072Z,43.30
2018-03-04T05:52:03.828Z,45.10
2018-03-04T05:54:31.534Z,43.57
2018-03-04T05:56:59.246Z,42.97
2018-03-04T05:59:26.939Z,45.33
2018-03-04T06:01:54.646Z,43.27
2018-03-04T06:04:23.222Z,43.97
2018-03-04T06:06:50.931Z,56.27
2018-03-04T06:09:19.361Z,45.13
2018-03-04T06:11:47.066Z,46.67
2018-03-04T06:14:15.494Z,42.27
2018-03-04T06:16:43.214Z,41.23
2018-03-04T06:19:10.882Z,44.13
2018-03-04T06:21:38.584Z,75.10
2018-03-04T06:24:06.354Z,51.97
2018-03-04T06:26:34.774Z,44.67
2018-03-04T06:29:04.104Z,46.67
2018-03-04T06:31:35.808Z,46.70
2018-03-04T06:34:05.191Z,45.87
2018-03-04T06:36:34.267Z,44.00
2018-03-04T06:39:03.438Z,41.67
2018-03-04T06:41:33.358Z,43.93
2018-03-04T06:44:03.267Z,44.10
2018-03-04T06:46:31.067Z,41.00
2018-03-04T06:48:58.797Z,53.50
2018-03-04T06:51:26.459Z,43.00
2018-03-04T06:53:54.176Z,39.87
2018-03-04T06:56:22.656Z,41.20
2018-03-04T06:58:51.085Z,43.10
2018-03-04T07:01:19.560Z,42.20
2018-03-04T07:03:47.226Z,44.27
2018-03-04T07:06:15.303Z,47.37
2018-03-04T07:08:42.967Z,43.77
2018-03-04T07:11:10.702Z,44.50
2018-03-04T07:13:38.363Z,55.40
2018-03-04T07:16:06.074Z,47.93
2018-03-04T07:18:34.498Z,45.50
2018-03-04T07:21:02.207Z,43.50
2018-03-04T07:23:30.710Z,42.53
2018-03-04T07:25:58.388Z,42.03
2018-03-04T07:28:26.775Z,42.80
2018-03-04T07:30:54.439Z,42.03
2018-03-04T07:33:22.156Z,42.57
2018-03-04T07:35:49.859Z,41.60
2018-03-04T07:38:17.562Z,43.57
2018-03-04T07:40:45.985Z,42.00
2018-03-04T07:43:13.699Z,40.50
2018-03-04T07:45:42.123Z,40.33
2018-03-04T07:48:09.835Z,43.10
2018-03-04T07:50:38.263Z,44.30
2018-03-04T07:53:06.000Z,41.67
2018-03-04T07:55:33.679Z,42.60
2018-03-04T07:58:01.402Z,41.63
2018-03-04T08:00:29.831Z,42.67
2018-03-04T08:02:57.489Z,40.73
2018-03-04T08:05:25.202Z,42.33
2018-03-04T08:07:53.628Z,42.70
2018-03-04T08:10:21.366Z,41.70
2018-03-04T08:12:49.039Z,40.20
2018-03-04T08:15:16.758Z,42.93
2018-03-04T08:17:45.241Z,38.30
2018-03-04T08:20:12.966Z,41.33
2018-03-04T08:22:40.646Z,40.47
2018-03-04T08:25:21.065Z,41.67
2018-03-04T08:28:00.684Z,40.90
2018-03-04T08:30:28.392Z,39.33
2018-03-04T08:32:56.090Z,40.00
2018-03-04T08:35:23.743Z,42.63
2018-03-04T08:37:51.445Z,82.77
2018-03-04T08:40:19.382Z,49.43
2018-03-04T08:42:47.104Z,40.33
2018-03-04T08:45:14.758Z,38.90
2018-03-04T08:47:42.454Z,39.43
2018-03-04T08:50:10.126Z,40.63
2018-03-04T08:52:37.823Z,38.90
2018-03-04T08:55:05.487Z,38.50
2018-03-04T08:57:33.195Z,42.10
2018-03-04T09:00:00.862Z,40.70
2018-03-04T09:02:28.571Z,39.23
2018-03-04T09:04:56.239Z,38.90
2018-03-04T09:07:24.723Z,40.30
2018-03-04T09:09:53.150Z,39.33
2018-03-04T09:12:20.854Z,39.20
2018-03-04T09:14:48.535Z,42.47
2018-03-04T09:17:16.247Z,40.47
2018-03-04T09:19:45.282Z,38.37
2018-03-04T09:22:15.878Z,37.97
2018-03-04T09:24:46.826Z,38.40
2018-03-04T09:27:15.214Z,40.53
2018-03-04T09:29:46.736Z,40.20
2018-03-04T09:32:16.955Z,40.90
2018-03-04T09:34:45.894Z,38.30
2018-03-04T09:37:14.547Z,38.97
2018-03-04T09:39:42.991Z,35.80
2018-03-04T09:42:12.693Z,39.20
2018-03-04T09:44:42.798Z,37.40
2018-03-04T09:47:12.562Z,35.53
2018-03-04T09:49:42.380Z,36.40
2018-03-04T09:52:12.869Z,36.50
2018-03-04T09:54:41.351Z,38.20
2018-03-04T09:57:10.703Z,34.80
2018-03-04T09:59:39.610Z,37.23
2018-03-04T10:02:08.621Z,38.60
2018-03-04T10:04:37.206Z,39.17
2018-03-04T10:07:06.598Z,39.93
2018-03-04T10:09:35.498Z,36.87
2018-03-04T10:12:04.076Z,34.90
2018-03-04T10:14:33.874Z,40.03
2018-03-04T10:17:02.466Z,36.43
2018-03-04T10:19:32.604Z,40.47
2018-03-04T10:22:00.341Z,39.33
2018-03-04T10:24:28.079Z,41.57
2018-03-04T10:26:55.735Z,37.80
2018-03-04T10:29:23.439Z,47.87
2018-03-04T10:31:51.107Z,41.37
2018-03-04T10:34:18.817Z,38.80
2018-03-04T10:36:46.519Z,37.87
2018-03-04T10:39:14.222Z,37.03
2018-03-04T10:41:41.883Z,37.13
2018-03-04T10:44:09.587Z,35.10
2018-03-04T10:46:37.263Z,36.93
2018-03-04T10:49:04.962Z,34.57
2018-03-04T10:51:32.620Z,37.43
2018-03-04T10:54:00.354Z,36.80
2018-03-04T10:56:28.017Z,36.20
2018-03-04T10:58:56.486Z,37.50
2018-03-04T11:01:28.146Z,35.67
2018-03-04T11:03:55.893Z,35.13
2018-03-04T11:06:23.593Z,34.47
2018-03-04T11:08:51.322Z,34.90
2018-03-04T11:11:18.983Z,33.67
2018-03-04T11:13:46.686Z,34.23
2018-03-04T11:16:14.347Z,33.60
2018-03-04T11:18:42.150Z,33.10
2018-03-04T11:21:09.813Z,33.87
2018-03-04T11:23:37.558Z,34.00
2018-03-04T11:26:05.231Z,31.63
2018-03-04T11:28:32.970Z,33.07
2018-03-04T11:31:00.631Z,31.67
2018-03-04T11:33:28.359Z,31.07
2018-03-04T11:35:56.026Z,33.87
2018-03-04T11:38:23.738Z,32.63
2018-03-04T11:40:51.398Z,33.60
2018-03-04T11:43:19.099Z,33.23
2018-03-04T11:45:46.970Z,31.10
2018-03-04T11:48:14.707Z,32.53
2018-03-04T11:50:43.130Z,31.20
2018-03-04T11:53:10.843Z,29.10
2018-03-04T11:55:39.278Z,31.20
2018-03-04T11:58:06.984Z,31.10
2018-03-04T12:00:35.427Z,31.40
2018-03-04T12:03:03.152Z,27.40
2018-03-04T12:05:30.824Z,27.43
2018-03-04T12:07:58.539Z,26.33
2018-03-04T12:10:26.982Z,25.10
2018-03-04T12:12:54.683Z,25.40
2018-03-04T12:15:23.112Z,25.77
2018-03-04T12:17:50.819Z,27.27
2018-03-04T12:20:19.295Z,24.93
2018-03-04T12:22:47.723Z,23.80
2018-03-04T12:25:15.435Z,24.23
2018-03-04T12:27:43.882Z,24.60
2018-03-04T12:30:11.599Z,23.00
2018-03-04T12:32:39.359Z,26.40
2018-03-04T12:35:07.071Z,25.63
2018-03-04T12:37:34.741Z,27.07
2018-03-04T12:40:02.449Z,22.90
2018-03-04T12:42:30.115Z,24.60
2018-03-04T12:44:57.823Z,22.60
2018-03-04T12:47:26.262Z,24.17
2018-03-04T12:49:53.971Z,22.87
2018-03-04T12:52:22.411Z,25.17
2018-03-04T12:54:50.111Z,23.70
2018-03-04T12:57:18.543Z,23.87
2018-03-04T12:59:47.067Z,24.63
2018-03-04T13:02:15.502Z,22.33
2018-03-04T13:04:43.203Z,24.13
2018-03-04T13:07:12.456Z,25.57
2018-03-04T13:09:40.163Z,20.13
2018-03-04T13:12:08.663Z,21.70
2018-03-04T13:14:36.380Z,22.77
2018-03-04T13:17:04.075Z,21.80
2018-03-04T13:19:31.795Z,21.63
2018-03-04T13:21:59.455Z,21.30
2018-03-04T13:24:27.163Z,22.10
2018-03-04T13:26:54.822Z,21.53
2018-03-04T13:29:22.531Z,19.77
2018-03-04T13:31:50.195Z,23.43
2018-03-04T13:34:17.898Z,22.23
2018-03-04T13:36:45.585Z,21.53
2018-03-04T13:39:13.302Z,23.57
2018-03-04T13:41:41.734Z,21.77
2018-03-04T13:44:09.450Z,21.83
2018-03-04T13:46:37.120Z,21.40
2018-03-04T13:49:04.850Z,23.23
2018-03-04T13:51:33.287Z,22.70
2018-03-04T13:54:01.055Z,22.87
2018-03-04T13:56:28.723Z,20.53
2018-03-04T13:58:56.431Z,22.40
2018-03-04T14:01:24.110Z,21.90
2018-03-04T14:03:51.816Z,21.40
2018-03-04T14:06:19.487Z,24.37
2018-03-04T14:08:47.186Z,23.83
2018-03-04T14:11:14.849Z,22.87
2018-03-04T14:13:42.555Z,24.87
2018-03-04T14:16:10.214Z,23.47
2018-03-04T14:18:37.922Z,24.77
2018-03-04T14:21:05.613Z,25.73
2018-03-04T14:23:33.334Z,25.70
2018-03-04T14:26:01.054Z,24.17
2018-03-04T14:28:28.772Z,25.90
2018-03-04T14:30:56.446Z,24.17
2018-03-04T14:33:24.109Z,24.60
2018-03-04T14:35:51.823Z,26.37
2018-03-04T14:38:19.514Z,25.33
2018-03-04T14:40:47.222Z,26.90
2018-03-04T14:43:14.886Z,25.30
2018-03-04T14:45:42.639Z,26.70
2018-03-04T14:48:10.302Z,28.37
2018-03-04T14:50:38.016Z,30.37
2018-03-04T14:53:05.704Z,30.97
2018-03-04T14:55:33.415Z,30.00
2018-03-04T14:58:01.086Z,31.03
2018-03-04T15:00:28.793Z,32.80
2018-03-04T15:02:56.450Z,34.73
2018-03-04T15:05:24.172Z,31.87
2018-03-04T15:07:51.841Z,32.13
2018-03-04T15:10:19.555Z,30.97
2018-03-04T15:12:47.262Z,30.93
2018-03-04T15:15:14.964Z,34.80
2018-03-04T15:17:42.626Z,33.93
2018-03-04T15:20:11.106Z,36.57
2018-03-04T15:22:39.535Z,32.80
2018-03-04T15:25:07.238Z,27.63
2018-03-04T15:27:34.907Z,33.30
2018-03-04T15:30:03.417Z,33.40
2018-03-04T15:32:31.080Z,33.37
2018-03-04T15:34:58.782Z,36.60
2018-03-04T15:37:26.446Z,33.27
2018-03-04T15:39:54.147Z,32.93
2018-03-04T15:42:21.809Z,33.70
2018-03-04T15:44:49.535Z,34.13
2018-03-04T15:47:17.344Z,32.40
2018-03-04T15:49:45.048Z,32.00
2018-03-04T15:52:12.711Z,32.23
2018-03-04T15:54:40.431Z,32.27
2018-03-04T15:57:08.091Z,33.07
2018-03-04T15:59:35.803Z,34.07
2018-03-04T16:02:03.511Z,32.87
2018-03-04T16:04:31.225Z,33.00
2018-03-04T16:06:59.655Z,32.50
2018-03-04T16:09:27.355Z,30.70
2018-03-04T16:11:55.032Z,33.83
2018-03-04T16:14:23.510Z,32.30
2018-03-04T16:16:51.940Z,30.80
2018-03-04T16:19:19.642Z,31.17
2018-03-04T16:21:48.070Z,32.70
2018-03-04T16:24:15.779Z,29.83
2018-03-04T16:26:44.204Z,32.40
2018-03-04T16:29:11.910Z,33.40
2018-03-04T16:31:39.592Z,31.60
2018-03-04T16:34:08.065Z,30.90
2018-03-04T16:36:36.495Z,32.93
2018-03-04T16:39:04.263Z,33.70
2018-03-04T16:41:31.932Z,31.40
2018-03-04T16:43:59.662Z,33.37
2018-03-04T16:46:27.318Z,32.17
2018-03-04T16:48:54.984Z,31.43
2018-03-04T16:51:22.691Z,33.50
2018-03-04T16:53:51.130Z,33.17
2018-03-04T16:56:18.834Z,35.67
2018-03-04T16:58:47.299Z,34.47
2018-03-04T17:01:15.013Z,34.80
2018-03-04T17:03:42.679Z,31.40
2018-03-04T17:06:10.379Z,31.90
2018-03-04T17:08:38.059Z,34.03
2018-03-04T17:11:06.539Z,30.50
2018-03-04T17:13:34.967Z,31.20
2018-03-04T17:16:02.666Z,29.43
2018-03-04T17:18:31.124Z,33.00
2018-03-04T17:20:58.831Z,31.20
2018-03-04T17:23:26.526Z,29.63
2018-03-04T17:25:54.239Z,28.53
2018-03-04T17:28:22.704Z,30.23
2018-03-04T17:30:51.288Z,29.30
2018-03-04T17:33:19.729Z,27.03
2018-03-04T17:35:47.427Z,28.73
2018-03-04T17:38:15.883Z,28.57
2018-03-04T17:40:43.600Z,28.50
2018-03-04T17:43:11.272Z,27.77
2018-03-04T17:45:38.976Z,27.60
2018-03-04T17:48:07.412Z,30.13
2018-03-04T17:50:35.110Z,26.57
2018-03-04T17:53:03.907Z,27.10
2018-03-04T17:55:33.560Z,29.37
2018-03-04T17:58:02.305Z,27.10
2018-03-04T18:00:32.210Z,28.00
2018-03-04T18:03:03.619Z,26.83
2018-03-04T18:05:33.223Z,26.40
2018-03-04T18:08:03.458Z,27.03
2018-03-04T18:10:33.043Z,25.67
2018-03-04T18:13:03.282Z,26.60
2018-03-04T18:15:32.500Z,24.50
2018-03-04T18:18:01.656Z,23.90
2018-03-04T18:20:31.497Z,23.43
2018-03-04T18:23:00.445Z,24.63
2018-03-04T18:25:29.246Z,24.17
2018-03-04T18:27:57.943Z,24.73
2018-03-04T18:30:26.813Z,24.63
2018-03-04T18:32:56.376Z,25.00
2018-03-04T18:35:25.451Z,24.27
2018-03-04T18:37:54.668Z,25.63
2018-03-04T18:40:22.395Z,25.00
2018-03-04T18:42:50.055Z,23.50
2018-03-04T18:45:17.761Z,25.83
2018-03-04T18:47:45.441Z,25.20
2018-03-04T18:50:13.147Z,24.43
2018-03-04T18:52:41.580Z,24.33
2018-03-04T18:55:09.278Z,22.53
2018-03-04T18:57:37.710Z,25.57
2018-03-04T19:00:05.525Z,24.97
2018-03-04T19:02:33.971Z,23.43
2018-03-04T19:05:01.672Z,24.13
2018-03-04T19:07:30.115Z,25.40
2018-03-04T19:09:57.819Z,24.47
2018-03-04T19:12:25.488Z,24.90
2018-03-04T19:14:53.224Z,22.90
2018-03-04T19:17:21.659Z,22.40
2018-03-04T19:19:49.377Z,24.53
2018-03-04T19:22:17.039Z,25.30
2018-03-04T19:24:44.701Z,24.47
2018-03-04T19:27:12.398Z,23.73
2018-03-04T19:29:40.055Z,22.40
2018-03-04T19:32:07.751Z,24.07
2018-03-04T19:34:36.176Z,23.77
2018-03-04T19:37:03.879Z,21.63
2018-03-04T19:39:31.550Z,23.20
2018-03-04T19:42:00.025Z,22.07
2018-03-04T19:44:28.459Z,22.87
2018-03-04T19:46:56.168Z,21.57
2018-03-04T19:49:24.600Z,22.33
2018-03-04T19:51:52.305Z,21.50
2018-03-04T19:54:20.736Z,21.90
2018-03-04T19:56:48.436Z,20.87
2018-03-04T19:59:16.863Z,22.93
2018-03-04T20:01:44.571Z,20.43
2018-03-04T20:04:12.238Z,20.80
2018-03-04T20:06:40.708Z,21.60
2018-03-04T20:09:08.382Z,21.60
2018-03-04T20:11:36.852Z,20.70
2018-03-04T20:14:05.299Z,20.97
2018-03-04T20:16:33.044Z,23.10
2018-03-04T20:19:00.714Z,21.03
2018-03-04T20:21:28.459Z,21.50
2018-03-04T20:23:56.134Z,20.53
2018-03-04T20:26:23.869Z,20.73
2018-03-04T20:28:51.535Z,20.33
2018-03-04T20:31:19.256Z,24.90
2018-03-04T20:33:47.731Z,21.67
2018-03-04T20:36:16.213Z,24.80
2018-03-04T20:38:43.941Z,23.57
2018-03-04T20:41:11.672Z,22.93
2018-03-04T20:43:39.359Z,22.10
2018-03-04T20:46:07.099Z,22.43
2018-03-04T20:48:34.758Z,24.23
2018-03-04T20:51:02.419Z,21.13
2018-03-04T20:53:30.119Z,22.60
2018-03-04T20:55:57.826Z,24.60
2018-03-04T20:58:25.547Z,33.33
2018-03-04T21:00:54.011Z,25.90
2018-03-04T21:03:21.712Z,24.67
2018-03-04T21:05:49.395Z,22.37
2018-03-04T21:08:17.094Z,24.37
2018-03-04T21:10:44.797Z,23.40
2018-03-04T21:13:12.497Z,24.70
2018-03-04T21:15:40.178Z,23.60
2018-03-04T21:18:07.904Z,26.37
2018-03-04T21:20:35.572Z,22.63
2018-03-04T21:23:04.051Z,23.70
2018-03-04T21:25:31.739Z,24.43
2018-03-04T21:27:59.439Z,23.20
2018-03-04T21:30:27.107Z,23.00
2018-03-04T21:32:54.814Z,22.43
2018-03-04T21:35:22.477Z,21.47
2018-03-04T21:37:50.192Z,20.27
2018-03-04T21:40:17.851Z,21.53
2018-03-04T21:42:45.565Z,21.00
2018-03-04T21:45:13.229Z,21.33
2018-03-04T21:47:41.690Z,21.60
2018-03-04T21:50:09.347Z,21.80
2018-03-04T21:52:37.047Z,21.70
2018-03-04T21:55:04.731Z,21.37
2018-03-04T21:57:32.438Z,21.10
2018-03-04T22:00:00.121Z,20.87
2018-03-04T22:02:27.828Z,22.23
2018-03-04T22:04:55.500Z,22.00
2018-03-04T22:07:23.203Z,22.97
2018-03-04T22:09:50.859Z,22.27
2018-03-04T22:12:18.565Z,24.20
2018-03-04T22:14:46.227Z,22.90
2018-03-04T22:17:13.938Z,22.57
2018-03-04T22:19:41.602Z,23.50
2018-03-04T22:22:09.315Z,22.90
2018-03-04T22:24:36.983Z,22.97
2018-03-04T22:27:04.697Z,24.17
2018-03-04T22:29:32.360Z,24.17
2018-03-04T22:32:00.068Z,21.83
2018-03-04T22:34:27.723Z,21.77
2018-03-04T22:36:55.430Z,23.90
2018-03-04T22:39:23.106Z,22.97
2018-03-04T22:41:50.811Z,21.80
2018-03-04T22:44:18.470Z,23.37
2018-03-04T22:46:46.171Z,21.60
2018-03-04T22:49:13.835Z,21.67
2018-03-04T22:51:41.588Z,23.17
2018-03-04T22:54:09.242Z,23.00
2018-03-04T22:56:36.900Z,24.17
2018-03-04T22:59:04.607Z,23.13
2018-03-04T23:01:32.271Z,23.80
2018-03-04T23:03:59.984Z,24.23
2018-03-04T23:06:27.658Z,23.20
2018-03-04T23:08:55.361Z,25.10
2018-03-04T23:11:23.018Z,25.80
2018-03-04T23:13:50.727Z,24.53
2018-03-04T23:16:18.386Z,25.10
2018-03-04T23:18:55.031Z,26.03
2018-03-04T23:21:23.465Z,23.90
2018-03-04T23:23:51.183Z,24.77
2018-03-04T23:26:18.854Z,24.90
2018-03-04T23:28:46.562Z,25.50
2018-03-04T23:31:14.228Z,26.17
2018-03-04T23:33:41.935Z,27.33
2018-03-04T23:36:09.596Z,25.90
2018-03-04T23:38:37.304Z,27.37
2018-03-04T23:41:04.967Z,27.47
2018-03-04T23:43:32.677Z,27.17
2018-03-04T23:46:00.371Z,26.00
2018-03-04T23:48:28.095Z,24.93
2018-03-04T23:50:55.755Z,27.73
2018-03-04T23:53:23.458Z,25.33
2018-03-04T23:55:51.122Z,26.73
2018-03-04T23:58:18.827Z,28.20
